Time;durP1;ratioP1;P1;durP2;ratioP2;P2;SDS_P1;SDS_P2;PMS_P1;PMS_P2;Temp;Humidity;BMP_temperature;BMP_pressure;BME280_temperature;BME280_humidity;BME280_pressure;Samples;Min_cycle;Max_cycle;Signal;HPM_P1;HPM_P2
2021/12/31 00:00:33;;;;;;;2.42;1.00;;;;;;;;;;5053200;28;20056;-48
2021/12/31 00:02:59;;;;;;;1.08;0.80;;;;;;;;;;5052997;28;20090;-48
2021/12/31 00:05:25;;;;;;;1.65;1.17;;;;;;;;;;5052936;28;20525;-48
2021/12/31 00:07:51;;;;;;;3.28;1.30;;;;;;;;;;5053155;28;20028;-48
2021/12/31 00:10:17;;;;;;;3.13;1.40;;;;;;;;;;5053023;28;20467;-49
2021/12/31 00:12:44;;;;;;;2.95;1.20;;;;;;;;;;5052982;28;20021;-47
2021/12/31 00:15:11;;;;;;;3.13;1.05;;;17.80;84.00;;;;;;5053064;28;20392;-50
2021/12/31 00:17:38;;;;;;;3.47;1.23;;;;;;;;;;5052965;28;20032;-49
2021/12/31 00:20:10;;;;;;;8.10;1.33;;;17.80;81.00;;;;;;5053224;28;20078;-49
2021/12/31 00:25:02;;;;;;;2.17;0.98;;;;;;;;;;5053050;28;20434;-48
2021/12/31 00:27:28;;;;;;;2.80;1.35;;;;;;;;;;5052862;28;20028;-48
2021/12/31 00:29:54;;;;;;;1.23;0.80;;;;;;;;;;5052429;28;20033;-48
2021/12/31 00:32:20;;;;;;;1.52;0.88;;;;;;;;;;5052664;28;20059;-48
2021/12/31 00:34:46;;;;;;;2.05;0.88;;;;;;;;;;5052657;28;20032;-49
2021/12/31 00:37:12;;;;;;;2.25;0.82;;;;;;;;;;5052605;28;20060;-48
2021/12/31 00:39:38;;;;;;;3.50;0.90;;;;;;;;;;5052552;28;20475;-49
2021/12/31 00:42:04;;;;;;;1.67;1.20;;;;;;;;;;5052504;28;20483;-48
2021/12/31 00:44:30;;;;;;;1.35;0.82;;;;;;;;;;5052488;28;20078;-48
2021/12/31 00:46:56;;;;;;;4.80;1.20;;;;;;;;;;5052499;28;20028;-49
2021/12/31 00:49:22;;;;;;;2.03;1.20;;;;;;;;;;5052441;28;20112;-49
2021/12/31 00:51:48;;;;;;;2.03;1.10;;;;;;;;;;5052438;28;20108;-49
2021/12/31 00:54:14;;;;;;;2.35;0.95;;;;;;;;;;5052556;28;20025;-49
2021/12/31 00:56:40;;;;;;;2.92;0.93;;;;;;;;;;5052410;28;20060;-47
2021/12/31 00:59:06;;;;;;;2.50;1.20;;;;;;;;;;5052313;28;20095;-49
2021/12/31 01:01:35;;;;;;;1.77;1.05;;;;;;;;;;5052216;28;20036;-48
2021/12/31 01:04:01;;;;;;;1.77;0.80;;;;;;;;;;5052249;28;20458;-47
2021/12/31 01:06:27;;;;;;;2.90;0.98;;;;;;;;;;5052181;28;20158;-48
2021/12/31 01:08:53;;;;;;;3.00;0.95;;;;;;;;;;5052190;28;20463;-48
2021/12/31 01:11:19;;;;;;;1.75;0.82;;;;;;;;;;5052517;28;20463;-48
2021/12/31 01:13:53;;;;;;;1.92;0.90;;;;;;;;;;5052067;28;20450;-48
2021/12/31 01:16:21;;;;;;;2.13;0.80;;;;;;;;;;5052349;28;20029;-48
2021/12/31 01:21:23;;;;;;;3.58;1.20;;;;;;;;;;5052397;28;20035;-48
2021/12/31 01:23:50;;;;;;;2.75;0.90;;;16.90;84.10;;;;;;5052035;28;20079;-49
2021/12/31 01:26:16;;;;;;;3.22;1.15;;;;;;;;;;5052261;28;20047;-49
2021/12/31 01:28:42;;;;;;;1.85;0.80;;;;;;;;;;5052008;28;20029;-49
2021/12/31 01:31:08;;;;;;;3.10;1.00;;;;;;;;;;5052016;28;20502;-50
2021/12/31 01:33:34;;;;;;;1.35;0.80;;;;;;;;;;5051927;28;20071;-49
2021/12/31 01:36:00;;;;;;;1.48;1.10;;;;;;;;;;5052230;28;20029;-49
2021/12/31 01:38:28;;;;;;;1.65;0.90;;;;;;;;;;5051958;28;20387;-47
2021/12/31 01:40:54;;;;;;;1.77;0.90;;;;;;;;;;5052763;28;20025;-49
2021/12/31 01:43:20;;;;;;;1.13;0.80;;;;;;;;;;5055911;28;20390;-47
2021/12/31 01:45:54;;;;;;;2.03;0.77;;;17.50;83.70;;;;;;5056013;28;20044;-48
2021/12/31 01:48:47;;;;;;;1.58;0.80;;;;;;;;;;5055861;28;20060;-48
2021/12/31 01:51:13;;;;;;;0.95;0.68;;;;;;;;;;5055775;28;20453;-47
2021/12/31 01:53:39;;;;;;;3.60;0.90;;;;;;;;;;5055654;28;20054;-48
2021/12/31 01:56:06;;;;;;;3.33;0.80;;;;;;;;;;5055653;28;20029;-48
2021/12/31 01:58:32;;;;;;;1.63;1.08;;;;;;;;;;5055584;28;20471;-48
2021/12/31 02:01:03;;;;;;;1.08;0.70;;;;;;;;;;5055607;28;20029;-49
2021/12/31 02:03:31;;;;;;;1.35;0.88;;;17.60;84.80;;;;;;5055269;28;20037;-48
2021/12/31 02:05:57;;;;;;;0.80;0.60;;;;;;;;;;5055405;28;20041;-48
2021/12/31 02:08:23;;;;;;;3.78;0.95;;;;;;;;;;5055358;28;20074;-48
2021/12/31 02:10:50;;;;;;;6.13;1.30;;;17.50;84.70;;;;;;5055331;28;20037;-48
2021/12/31 02:13:17;;;;;;;1.95;0.93;;;17.50;82.90;;;;;;5055554;28;20017;-48
2021/12/31 02:15:43;;;;;;;1.73;0.82;;;;;;;;;;5055234;28;20067;-47
2021/12/31 02:18:10;;;;;;;1.77;0.80;;;;;;;;;;5055384;28;20026;-48
2021/12/31 02:20:43;;;;;;;1.85;0.90;;;17.50;79.00;;;;;;5055135;28;20479;-47
2021/12/31 02:23:23;;;;;;;0.80;0.70;;;17.50;79.10;;;;;;5055144;28;20021;-48
2021/12/31 02:25:49;;;;;;;1.92;0.60;;;;;;;;;;5055324;28;20037;-47
2021/12/31 02:28:16;;;;;;;1.20;0.80;;;;;;;;;;5055143;28;20025;-47
2021/12/31 02:30:42;;;;;;;1.98;0.63;;;;;;;;;;5054992;28;20119;-47
2021/12/31 02:33:08;;;;;;;0.57;0.50;;;;;;;;;;5054972;28;20036;-48
2021/12/31 02:35:34;;;;;;;2.28;1.00;;;;;;;;;;5055022;28;20025;-49
2021/12/31 02:38:01;;;;;;;1.73;0.98;;;;;;;;;;5054846;28;20033;-47
2021/12/31 02:40:28;;;;;;;1.27;0.50;;;;;;;;;;5054812;28;20108;-48
2021/12/31 02:42:54;;;;;;;1.25;0.63;;;;;;;;;;5054725;28;20029;-48
2021/12/31 02:45:28;;;;;;;2.95;0.80;;;;;;;;;;5054651;28;20514;-49
2021/12/31 02:47:54;;;;;;;2.45;0.82;;;;;;;;;;5054643;28;20044;-49
2021/12/31 02:50:29;;;;;;;1.10;0.73;;;;;;;;;;5054625;28;20468;-48
2021/12/31 02:52:55;;;;;;;0.60;0.60;;;;;;;;;;5054006;28;20021;-48
2021/12/31 02:55:24;;;;;;;1.13;0.60;;;17.40;84.60;;;;;;5054602;28;20150;-47
2021/12/31 02:57:50;;;;;;;4.50;1.23;;;;;;;;;;5054435;28;20021;-49
2021/12/31 03:00:16;;;;;;;1.83;0.70;;;;;;;;;;5054467;28;20025;-49
2021/12/31 03:02:43;;;;;;;0.85;0.65;;;17.40;84.60;;;;;;5054340;28;20033;-48
2021/12/31 03:05:09;;;;;;;1.63;0.90;;;17.40;82.10;;;;;;5054125;28;20154;-49
2021/12/31 03:07:41;;;;;;;2.38;0.80;;;17.40;79.10;;;;;;5054272;28;20033;-49
2021/12/31 03:10:09;;;;;;;2.80;0.90;;;17.50;84.60;;;;;;5054211;28;20491;-48
2021/12/31 03:12:35;;;;;;;1.55;0.82;;;;;;;;;;5054356;28;20017;-48
2021/12/31 03:15:01;;;;;;;1.05;0.80;;;;;;;;;;5054117;28;20054;-47
2021/12/31 03:17:27;;;;;;;1.35;0.90;;;;;;;;;;5054341;28;20025;-48
2021/12/31 03:20:07;;;;;;;1.08;0.80;;;;;;;;;;5054014;28;20025;-47
2021/12/31 03:22:33;;;;;;;1.67;1.00;;;;;;;;;;5054339;28;20040;-48
2021/12/31 03:24:59;;;;;;;1.08;0.65;;;;;;;;;;5053866;28;20373;-48
2021/12/31 03:27:25;;;;;;;1.58;0.70;;;;;;;;;;5053933;28;20051;-48
2021/12/31 03:29:51;;;;;;;1.77;0.90;;;;;;;;;;5053820;28;20112;-48
2021/12/31 03:32:16;;;;;;;2.17;0.80;;;;;;;;;;5053804;28;20021;-48
2021/12/31 03:34:42;;;;;;;1.02;0.85;;;;;;;;;;5053817;28;20029;-48
2021/12/31 03:37:08;;;;;;;1.67;0.70;;;;;;;;;;5053701;28;20468;-49
2021/12/31 03:39:34;;;;;;;1.25;0.50;;;;;;;;;;5053793;28;20450;-47
2021/12/31 03:42:00;;;;;;;0.50;0.50;;;;;;;;;;5053597;28;20033;-47
2021/12/31 03:44:26;;;;;;;1.35;0.90;;;;;;;;;;5053546;28;20040;-49
2021/12/31 03:46:52;;;;;;;1.25;0.90;;;;;;;;;;5053645;28;20108;-48
2021/12/31 03:49:18;;;;;;;1.98;0.57;;;;;;;;;;5053587;28;20033;-48
2021/12/31 03:51:44;;;;;;;1.35;0.60;;;;;;;;;;5053435;28;20033;-48
2021/12/31 03:54:10;;;;;;;1.20;0.90;;;;;;;;;;5053356;28;20110;-49
2021/12/31 03:56:36;;;;;;;2.03;1.00;;;;;;;;;;5053392;28;20060;-47
2021/12/31 03:59:02;;;;;;;2.33;0.57;;;;;;;;;;5053284;28;20036;-48
2021/12/31 04:01:28;;;;;;;1.42;0.60;;;;;;;;;;5053226;28;20029;-49
2021/12/31 04:03:55;;;;;;;2.47;0.98;;;17.40;84.90;;;;;;5052824;28;20457;-49
2021/12/31 04:06:21;;;;;;;1.33;0.52;;;;;;;;;;5052661;28;20033;-47
2021/12/31 04:08:51;;;;;;;0.73;0.63;;;17.30;83.00;;;;;;5053297;28;20037;-47
2021/12/31 04:11:17;;;;;;;1.90;0.65;;;;;;;;;;5053371;28;20504;-48
2021/12/31 04:13:43;;;;;;;1.95;0.77;;;;;;;;;;5053075;28;20025;-48
2021/12/31 04:16:09;;;;;;;2.38;0.80;;;;;;;;;;5052999;28;20395;-48
2021/12/31 04:18:35;;;;;;;2.00;0.90;;;;;;;;;;5052983;28;20025;-48
2021/12/31 04:21:01;;;;;;;0.80;0.80;;;;;;;;;;5053131;28;20035;-48
2021/12/31 04:23:34;;;;;;;1.95;0.73;;;;;;;;;;5053418;28;20104;-49
2021/12/31 04:26:00;;;;;;;1.42;0.55;;;;;;;;;;5052842;28;20037;-47
2021/12/31 04:28:27;;;;;;;0.85;0.52;;;17.30;84.70;;;;;;5052789;28;20382;-48
2021/12/31 04:30:53;;;;;;;0.65;0.65;;;;;;;;;;5052784;28;20029;-48
2021/12/31 04:33:19;;;;;;;1.83;0.80;;;;;;;;;;5052710;28;20063;-47
2021/12/31 04:35:46;;;;;;;1.80;0.90;;;;;;;;;;5052656;28;20056;-48
2021/12/31 04:38:11;;;;;;;1.50;0.50;;;;;;;;;;5052565;28;20103;-47
2021/12/31 04:40:37;;;;;;;0.50;0.40;;;;;;;;;;5052595;28;20104;-49
2021/12/31 04:43:04;;;;;;;2.72;0.60;;;;;;;;;;5052564;28;20028;-49
2021/12/31 04:45:30;;;;;;;0.93;0.80;;;;;;;;;;5052672;28;20509;-48
2021/12/31 04:47:56;;;;;;;1.13;0.60;;;;;;;;;;5052763;28;20383;-48
2021/12/31 04:50:22;;;;;;;1.23;0.70;;;;;;;;;;5052394;28;20032;-49
2021/12/31 04:52:48;;;;;;;1.02;0.73;;;;;;;;;;5052398;28;20036;-47
2021/12/31 04:55:14;;;;;;;1.20;0.65;;;;;;;;;;5052361;28;20490;-49
2021/12/31 04:57:42;;;;;;;0.82;0.40;;;;;;;;;;5052323;28;20032;-49
2021/12/31 05:00:08;;;;;;;0.93;0.60;;;17.30;81.80;;;;;;5052339;28;20116;-48
2021/12/31 05:02:35;;;;;;;0.82;0.70;;;;;;;;;;5052248;28;20025;-48
2021/12/31 05:05:04;;;;;;;2.20;0.68;;;;;;;;;;5052024;28;20073;-48
2021/12/31 05:07:30;;;;;;;0.55;0.40;;;;;;;;;;5052202;28;20024;-48
2021/12/31 05:09:56;;;;;;;0.93;0.60;;;;;;;;;;5052209;28;20052;-49
2021/12/31 05:12:26;;;;;;;0.70;0.60;;;;;;;;;;5052398;28;20079;-48
2021/12/31 05:14:52;;;;;;;1.40;0.70;;;;;;;;;;5052231;28;20029;-49
2021/12/31 05:17:18;;;;;;;0.80;0.43;;;;;;;;;;5051860;28;20376;-48
2021/12/31 05:19:45;;;;;;;1.45;0.85;;;;;;;;;;5052167;28;20025;-48
2021/12/31 05:22:14;;;;;;;1.40;0.70;;;17.20;79.20;;;;;;5052217;28;20483;-47
2021/12/31 05:24:40;;;;;;;1.15;0.60;;;17.20;82.90;;;;;;5051818;28;20041;-48
2021/12/31 05:27:07;;;;;;;1.30;0.70;;;17.30;81.70;;;;;;5052264;28;20353;-49
2021/12/31 05:29:33;;;;;;;1.75;0.75;;;17.20;83.60;;;;;;5051996;28;20025;-49
2021/12/31 05:31:59;;;;;;;0.95;0.70;;;;;;;;;;5051944;28;20078;-49
2021/12/31 05:34:25;;;;;;;0.88;0.63;;;;;;;;;;5051884;28;20021;-48
2021/12/31 05:36:51;;;;;;;1.92;0.73;;;;;;;;;;5051960;28;20036;-48
2021/12/31 05:39:17;;;;;;;1.98;0.80;;;;;;;;;;5051922;28;20025;-48
2021/12/31 05:41:43;;;;;;;1.55;0.60;;;;;;;;;;5052337;28;20029;-49
2021/12/31 05:44:10;;;;;;;1.35;0.50;;;;;;;;;;5051795;28;20037;-48
2021/12/31 05:46:36;;;;;;;1.65;0.68;;;17.20;83.80;;;;;;5051871;28;20075;-49
2021/12/31 05:49:03;;;;;;;1.08;0.63;;;17.20;84.90;;;;;;5051845;28;20025;-47
2021/12/31 05:51:31;;;;;;;0.90;0.70;;;;;;;;;;5051820;28;20103;-49
2021/12/31 05:53:57;;;;;;;0.70;0.40;;;;;;;;;;5052020;28;20029;-48
2021/12/31 05:56:23;;;;;;;0.95;0.60;;;;;;;;;;5051830;28;20033;-49
2021/12/31 05:58:49;;;;;;;2.05;0.75;;;;;;;;;;5051857;28;20022;-49
2021/12/31 06:01:15;;;;;;;1.40;0.65;;;;;;;;;;5051644;28;20036;-48
2021/12/31 06:03:41;;;;;;;0.88;0.77;;;;;;;;;;5051489;28;20049;-48
2021/12/31 06:06:07;;;;;;;2.50;0.60;;;;;;;;;;5051606;28;20116;-49
2021/12/31 06:08:33;;;;;;;0.80;0.50;;;;;;;;;;5051569;28;20042;-49
2021/12/31 06:10:59;;;;;;;0.93;0.70;;;;;;;;;;5051623;28;20029;-48
2021/12/31 06:13:25;;;;;;;0.60;0.55;;;;;;;;;;5051562;28;20491;-48
2021/12/31 06:15:57;;;;;;;0.60;0.50;;;;;;;;;;5051560;28;20033;-49
2021/12/31 06:18:23;;;;;;;0.90;0.50;;;;;;;;;;5051956;28;20025;-48
2021/12/31 06:20:49;;;;;;;1.55;0.73;;;;;;;;;;5051515;28;20033;-49
2021/12/31 06:23:15;;;;;;;1.58;0.60;;;;;;;;;;5051524;28;20484;-49
2021/12/31 06:25:42;;;;;;;1.00;0.50;;;;;;;;;;5051368;28;20109;-48
2021/12/31 06:28:08;;;;;;;1.08;0.55;;;;;;;;;;5052537;28;20476;-50
2021/12/31 06:30:34;;;;;;;0.95;0.47;;;;;;;;;;5055060;28;20040;-47
2021/12/31 06:33:00;;;;;;;0.80;0.60;;;;;;;;;;5055035;28;20432;-48
2021/12/31 06:35:26;;;;;;;0.70;0.57;;;;;;;;;;5055017;28;20025;-48
2021/12/31 06:37:54;;;;;;;1.90;0.70;;;;;;;;;;5054944;28;20049;-48
2021/12/31 06:40:20;;;;;;;0.95;0.40;;;;;;;;;;5055009;28;20048;-48
2021/12/31 06:42:46;;;;;;;1.38;0.80;;;;;;;;;;5054710;28;20511;-50
2021/12/31 06:45:12;;;;;;;0.95;0.50;;;;;;;;;;5054958;28;20047;-47
2021/12/31 06:47:38;;;;;;;1.63;0.60;;;;;;;;;;5054666;28;20033;-48
2021/12/31 06:50:04;;;;;;;1.08;0.50;;;17.00;85.90;;;;;;5054609;28;20029;-51
2021/12/31 06:52:30;;;;;;;1.38;0.52;;;;;;;;;;5054743;28;20025;-48
2021/12/31 06:54:56;;;;;;;2.15;0.52;;;;;;;;;;5054497;28;20029;-48
2021/12/31 06:57:24;;;;;;;0.85;0.45;;;;;;;;;;5054447;28;20017;-47
2021/12/31 06:59:50;;;;;;;1.70;0.52;;;;;;;;;;5054447;28;20365;-47
2021/12/31 07:02:16;;;;;;;0.98;0.60;;;;;;;;;;5054398;28;20032;-47
2021/12/31 07:04:42;;;;;;;2.85;0.90;;;;;;;;;;5054084;28;20084;-47
2021/12/31 07:07:08;;;;;;;1.58;0.60;;;;;;;;;;5054121;28;20067;-48
2021/12/31 07:09:34;;;;;;;1.98;0.43;;;;;;;;;;5054089;28;20041;-47
2021/12/31 07:12:00;;;;;;;1.00;0.50;;;;;;;;;;5054054;28;20031;-48
2021/12/31 07:14:26;;;;;;;1.48;0.70;;;;;;;;;;5054009;28;20395;-48
2021/12/31 07:16:52;;;;;;;0.90;0.57;;;;;;;;;;5053968;28;20442;-48
2021/12/31 07:19:18;;;;;;;1.30;0.80;;;;;;;;;;5053859;28;20029;-48
2021/12/31 07:21:44;;;;;;;1.60;0.50;;;;;;;;;;5053893;28;20079;-48
2021/12/31 07:24:10;;;;;;;4.32;0.68;;;;;;;;;;5053631;28;20090;-47
2021/12/31 07:26:36;;;;;;;0.63;0.52;;;;;;;;;;5053724;28;20438;-49
2021/12/31 07:29:02;;;;;;;3.13;0.98;;;;;;;;;;5053695;28;20060;-49
2021/12/31 07:31:28;;;;;;;0.88;0.40;;;;;;;;;;5053712;28;20079;-49
2021/12/31 07:33:54;;;;;;;2.30;0.75;;;16.90;86.40;;;;;;5053528;28;20025;-50
2021/12/31 07:36:20;;;;;;;0.45;0.45;;;;;;;;;;5053529;28;20373;-48
2021/12/31 07:38:55;;;;;;;2.60;0.95;;;;;;;;;;5053351;28;20029;-49
2021/12/31 07:41:21;;;;;;;1.52;0.50;;;;;;;;;;5053362;28;20246;-47
2021/12/31 07:43:47;;;;;;;1.58;0.70;;;;;;;;;;5053319;28;20040;-48
2021/12/31 07:46:13;;;;;;;1.00;0.50;;;;;;;;;;5053155;28;20044;-49
2021/12/31 07:48:39;;;;;;;1.80;0.70;;;;;;;;;;5053396;28;20395;-47
2021/12/31 07:51:05;;;;;;;3.08;0.80;;;;;;;;;;5053294;28;20025;-47
2021/12/31 07:53:31;;;;;;;1.50;0.63;;;;;;;;;;5053350;28;20152;-48
2021/12/31 07:55:57;;;;;;;1.70;0.65;;;;;;;;;;5053304;28;20441;-49
2021/12/31 07:58:24;;;;;;;3.42;0.93;;;;;;;;;;5053254;28;20033;-48
2021/12/31 08:00:50;;;;;;;2.50;0.80;;;;;;;;;;5053395;28;20030;-49
2021/12/31 08:03:16;;;;;;;2.05;1.10;;;;;;;;;;5053037;28;20475;-48
2021/12/31 08:05:42;;;;;;;3.35;1.00;;;;;;;;;;5053191;28;20083;-49
2021/12/31 08:08:08;;;;;;;2.58;0.90;;;;;;;;;;5053183;28;20029;-49
2021/12/31 08:10:34;;;;;;;2.55;0.82;;;;;;;;;;5053391;28;20083;-50
2021/12/31 08:13:03;;;;;;;5.63;1.48;;;;;;;;;;5052959;28;20451;-48
2021/12/31 08:15:29;;;;;;;2.97;0.98;;;;;;;;;;5053066;28;20025;-50
2021/12/31 08:17:55;;;;;;;1.63;0.80;;;;;;;;;;5053056;28;20512;-49
2021/12/31 08:20:22;;;;;;;2.15;0.98;;;;;;;;;;5052865;28;20559;-49
2021/12/31 08:22:48;;;;;;;0.70;0.70;;;;;;;;;;5052928;28;20040;-52
2021/12/31 08:25:14;;;;;;;2.70;0.70;;;;;;;;;;5051457;28;20556;-49
2021/12/31 08:27:40;;;;;;;1.23;0.63;;;;;;;;;;5052860;28;20029;-50
2021/12/31 08:30:07;;;;;;;3.47;0.98;;;;;;;;;;5052605;28;20364;-48
2021/12/31 08:32:33;;;;;;;3.47;1.00;;;;;;;;;;5052677;28;20086;-47
2021/12/31 08:34:59;;;;;;;2.67;1.20;;;;;;;;;;5052658;28;20037;-48
2021/12/31 08:37:25;;;;;;;2.80;0.95;;;;;;;;;;5052606;28;20036;-47
2021/12/31 08:39:52;;;;;;;3.58;0.70;;;;;;;;;;5052591;28;20059;-47
2021/12/31 08:42:18;;;;;;;4.22;0.93;;;;;;;;;;5052510;28;20103;-50
2021/12/31 08:44:44;;;;;;;2.33;0.80;;;;;;;;;;5052502;28;20125;-48
2021/12/31 08:47:10;;;;;;;1.08;0.73;;;;;;;;;;5052705;28;20021;-48
2021/12/31 08:49:36;;;;;;;5.25;1.25;;;;;;;;;;5051132;28;20487;-48
2021/12/31 08:52:01;;;;;;;1.02;0.60;;;;;;;;;;5051845;28;20067;-49
2021/12/31 08:54:29;;;;;;;4.88;0.88;;;17.00;87.70;;;;;;5052353;28;20537;-48
2021/12/31 08:56:55;;;;;;;1.65;0.75;;;;;;;;;;5052353;28;20070;-48
2021/12/31 08:59:21;;;;;;;2.92;0.85;;;;;;;;;;5052259;28;20036;-48
2021/12/31 09:01:47;;;;;;;3.33;0.95;;;;;;;;;;5052270;28;20033;-48
2021/12/31 09:04:13;;;;;;;4.05;1.00;;;;;;;;;;5051937;28;20045;-46
2021/12/31 09:06:39;;;;;;;4.95;0.93;;;;;;;;;;5052581;28;20148;-48
2021/12/31 09:09:06;;;;;;;1.75;0.90;;;17.00;87.30;;;;;;5052236;28;20025;-48
2021/12/31 09:11:32;;;;;;;2.95;1.00;;;;;;;;;;5052384;28;20434;-49
2021/12/31 09:13:58;;;;;;;1.33;0.93;;;;;;;;;;5052174;28;20025;-46
2021/12/31 09:16:24;;;;;;;3.53;0.80;;;17.00;84.40;;;;;;5052069;28;20033;-48
2021/12/31 09:18:50;;;;;;;2.13;0.80;;;;;;;;;;5052071;28;20044;-47
2021/12/31 09:21:17;;;;;;;1.83;0.90;;;;;;;;;;5052287;28;20388;-48
2021/12/31 09:23:44;;;;;;;2.40;1.05;;;17.00;87.10;;;;;;5052320;28;20022;-47
2021/12/31 09:26:11;;;;;;;2.92;0.82;;;;;;;;;;5051921;28;20511;-46
2021/12/31 09:28:37;;;;;;;2.67;0.75;;;;;;;;;;5052016;28;20029;-47
2021/12/31 09:31:05;;;;;;;1.95;0.90;;;;;;;;;;5051984;28;20040;-48
2021/12/31 09:33:31;;;;;;;2.60;1.00;;;;;;;;;;5051927;28;20079;-47
2021/12/31 09:35:57;;;;;;;1.48;0.77;;;;;;;;;;5051968;28;20431;-49
2021/12/31 09:38:23;;;;;;;1.42;0.90;;;;;;;;;;5051891;28;20036;-48
2021/12/31 09:40:50;;;;;;;2.67;1.17;;;;;;;;;;5051927;28;20044;-50
2021/12/31 09:43:15;;;;;;;1.45;0.75;;;;;;;;;;5051822;28;20029;-48
2021/12/31 09:45:45;;;;;;;3.65;0.98;;;17.00;87.30;;;;;;5051617;28;20489;-47
2021/12/31 09:48:16;;;;;;;2.92;1.00;;;16.90;87.10;;;;;;5051848;28;20068;-47
2021/12/31 09:50:44;;;;;;;3.17;0.90;;;17.00;87.20;;;;;;5051809;28;20396;-49
2021/12/31 09:53:12;;;;;;;1.25;0.70;;;17.00;86.80;;;;;;5051712;28;20463;-49
2021/12/31 09:55:38;;;;;;;4.30;1.58;;;16.90;86.70;;;;;;5052039;28;20033;-50
2021/12/31 09:58:05;;;;;;;2.70;0.90;;;;;;;;;;5051776;28;20036;-48
2021/12/31 10:00:31;;;;;;;5.72;0.88;;;;;;;;;;5051780;28;20387;-50
2021/12/31 10:03:10;;;;;;;1.42;0.73;;;17.20;80.90;;;;;;5052743;28;20017;-50
2021/12/31 10:05:49;;;;;;;1.73;0.80;;;17.20;81.90;;;;;;5055482;28;20044;-48
2021/12/31 10:08:23;;;;;;;3.67;0.77;;;17.20;82.50;;;;;;5055559;28;20025;-48
2021/12/31 10:11:22;;;;;;;3.30;1.27;;;17.20;82.80;;;;;;5055416;28;20060;-49
2021/12/31 10:13:48;;;;;;;4.03;0.95;;;;;;;;;;5055700;28;20056;-49
2021/12/31 10:16:27;;;;;;;2.70;0.93;;;17.00;82.30;;;;;;5055526;28;20479;-50
2021/12/31 10:19:08;;;;;;;2.28;1.13;;;17.10;82.20;;;;;;5055264;28;20024;-48
2021/12/31 10:21:46;;;;;;;3.97;1.00;;;18.30;82.80;;;;;;5055435;28;20013;-49
2021/12/31 10:24:38;;;;;;;1.77;0.95;;;17.20;82.00;;;;;;5055064;28;20391;-49
2021/12/31 10:27:09;;;;;;;2.35;0.70;;;17.20;81.70;;;;;;5055346;28;20422;-50
2021/12/31 10:29:35;;;;;;;2.60;1.08;;;;;;;;;;5055056;28;20029;-49
2021/12/31 10:32:01;;;;;;;1.58;0.80;;;;;;;;;;5054958;28;20032;-50
2021/12/31 10:34:37;;;;;;;1.85;0.77;;;17.10;81.40;;;;;;5055028;28;20541;-48
2021/12/31 10:37:03;;;;;;;2.55;0.75;;;;;;;;;;5054949;28;20037;-48
2021/12/31 10:39:37;;;;;;;0.77;0.70;;;17.10;86.90;;;;;;5055043;28;20033;-49
2021/12/31 10:42:03;;;;;;;1.38;0.80;;;;;;;;;;5054681;28;20057;-49
2021/12/31 10:44:44;;;;;;;1.42;0.60;;;17.20;81.20;;;;;;5054621;28;20131;-48
2021/12/31 10:47:15;;;;;;;1.65;1.00;;;17.20;86.80;;;;;;5054671;28;20033;-47
2021/12/31 10:50:03;;;;;;;1.13;0.70;;;17.10;86.70;;;;;;5054358;28;20024;-48
2021/12/31 10:52:38;;;;;;;2.95;1.05;;;17.20;80.80;;;;;;5054598;28;20032;-48
2021/12/31 10:55:21;;;;;;;1.90;0.90;;;17.20;86.40;;;;;;5054910;28;20014;-48
2021/12/31 10:57:52;;;;;;;1.95;0.82;;;17.20;86.40;;;;;;5054467;28;20061;-48
2021/12/31 11:00:20;;;;;;;0.70;0.70;;;17.30;86.40;;;;;;5054608;28;20029;-47
2021/12/31 11:02:46;;;;;;;0.70;0.60;;;17.20;83.30;;;;;;5054338;28;20063;-48
2021/12/31 11:05:15;;;;;;;1.65;0.90;;;17.30;86.30;;;;;;5054208;28;20127;-47
2021/12/31 11:07:42;;;;;;;1.88;1.05;;;;;;;;;;5054598;28;20091;-46
2021/12/31 11:10:09;;;;;;;1.95;0.60;;;17.30;85.80;;;;;;5054559;28;20112;-47
2021/12/31 11:12:35;;;;;;;1.92;0.82;;;17.30;82.70;;;;;;5054251;28;20086;-48
2021/12/31 11:15:02;;;;;;;4.63;0.85;;;17.30;84.80;;;;;;5053741;28;20430;-46
2021/12/31 11:17:28;;;;;;;2.90;0.82;;;;;;;;;;5054126;28;20025;-47
2021/12/31 11:19:54;;;;;;;3.25;0.70;;;;;;;;;;5054033;28;20396;-47
2021/12/31 11:22:25;;;;;;;3.88;0.95;;;17.30;79.90;;;;;;5054077;28;20051;-47
2021/12/31 11:24:51;;;;;;;1.48;0.80;;;;;;;;;;5053960;28;20037;-47
2021/12/31 11:27:26;;;;;;;0.90;0.70;;;16.00;79.00;;;;;;5054026;28;20112;-47
2021/12/31 11:29:52;;;;;;;1.02;0.70;;;17.40;83.70;;;;;;5054140;28;20375;-48
2021/12/31 11:32:19;;;;;;;0.85;0.65;;;17.30;82.60;;;;;;5053660;28;20025;-48
2021/12/31 11:34:45;;;;;;;2.03;0.50;;;;;;;;;;5053707;28;20033;-50
2021/12/31 11:37:43;;;;;;;0.60;0.40;;;17.30;85.00;;;;;;5053494;28;20025;-47
2021/12/31 11:40:28;;;;;;;1.52;0.65;;;17.30;79.10;;;;;;5053459;28;20359;-47
2021/12/31 11:43:13;;;;;;;1.17;0.80;;;17.40;79.20;;;;;;5053598;28;20028;-48
2021/12/31 11:45:39;;;;;;;1.73;0.80;;;;;;;;;;5053327;28;20086;-47
2021/12/31 11:48:50;;;;;;;1.15;0.80;;;17.20;84.90;;;;;;5053385;28;20021;-46
2021/12/31 11:51:23;;;;;;;1.38;0.50;;;17.30;85.00;;;;;;5052874;28;20045;-47
2021/12/31 11:53:58;;;;;;;1.48;0.80;;;17.40;79.00;;;;;;5053385;28;20094;-47
2021/12/31 11:56:33;;;;;;;3.17;0.70;;;17.60;79.20;;;;;;5053264;28;20047;-46
2021/12/31 11:59:07;;;;;;;3.63;0.93;;;17.30;79.00;;;;;;5053365;28;20028;-47
2021/12/31 12:01:36;;;;;;;3.42;1.25;;;17.40;78.90;;;;;;5051831;28;20578;-47
2021/12/31 12:04:17;;;;;;;2.50;0.63;;;17.40;78.80;;;;;;5053121;28;20056;-46
2021/12/31 12:07:09;;;;;;;0.50;0.50;;;17.80;84.50;;;;;;5053356;28;20075;-47
2021/12/31 12:09:38;;;;;;;1.23;0.60;;;17.40;78.60;;;;;;5042938;28;20033;-47
2021/12/31 12:12:13;;;;;;;7.75;0.98;;;17.40;78.70;;;;;;5053045;28;20447;-47
2021/12/31 12:14:42;;;;;;;1.50;1.02;;;;;;;;;;5053430;28;20112;-48
2021/12/31 12:17:10;;;;;;;2.72;0.70;;;17.50;83.50;;;;;;5052976;28;20043;-47
2021/12/31 12:19:58;;;;;;;4.90;1.15;;;17.50;78.40;;;;;;5052793;28;20090;-46
2021/12/31 12:22:32;;;;;;;3.35;1.17;;;17.40;83.20;;;;;;5049917;28;20484;-48
2021/12/31 12:25:01;;;;;;;2.05;0.93;;;17.40;84.00;;;;;;5052629;28;20036;-46
2021/12/31 12:27:27;;;;;;;1.85;1.10;;;;;;;;;;5052478;28;20052;-47
2021/12/31 12:29:55;;;;;;;1.60;1.00;;;17.40;83.70;;;;;;5052793;28;20028;-46
2021/12/31 12:32:34;;;;;;;3.08;0.82;;;17.50;82.00;;;;;;5053036;28;20638;-46
2021/12/31 12:35:12;;;;;;;1.65;0.73;;;17.50;83.70;;;;;;5052791;28;20471;-47
2021/12/31 12:37:38;;;;;;;3.90;0.90;;;;;;;;;;5053063;28;20378;-47
2021/12/31 12:40:04;;;;;;;1.35;0.93;;;17.40;81.20;;;;;;5052681;28;20111;-48
2021/12/31 12:42:30;;;;;;;2.35;0.80;;;;;;;;;;5052951;28;20395;-48
2021/12/31 12:45:07;;;;;;;2.65;0.80;;;17.30;83.20;;;;;;5052608;28;20065;-47
2021/12/31 12:47:35;;;;;;;2.92;0.90;;;17.40;81.70;;;;;;5052512;28;20112;-47
2021/12/31 12:50:04;;;;;;;2.15;0.70;;;17.50;83.00;;;;;;5052435;28;20029;-47
2021/12/31 12:52:30;;;;;;;0.93;0.70;;;;;;;;;;5052633;28;20027;-48
2021/12/31 12:55:09;;;;;;;1.45;0.88;;;17.50;76.90;;;;;;5052256;28;20108;-48
2021/12/31 12:57:35;;;;;;;1.45;0.80;;;;;;;;;;5052238;28;20031;-46
2021/12/31 13:00:01;;;;;;;0.80;0.55;;;;;;;;;;5052302;28;20025;-47
2021/12/31 13:02:40;;;;;;;2.08;0.70;;;17.50;76.60;;;;;;5052160;28;20033;-47
2021/12/31 13:05:14;;;;;;;0.98;0.75;;;17.50;82.30;;;;;;5051982;28;20389;-46
2021/12/31 13:07:51;;;;;;;2.10;0.63;;;17.50;76.60;;;;;;5052258;28;20021;-48
2021/12/31 13:10:17;;;;;;;1.38;0.65;;;;;;;;;;5052095;28;20036;-47
2021/12/31 13:12:43;;;;;;;1.65;0.75;;;;;;;;;;5052305;28;20029;-47
2021/12/31 13:15:09;;;;;;;2.15;0.77;;;;;;;;;;5052115;28;20029;-47
2021/12/31 13:17:36;;;;;;;1.70;0.88;;;;;;;;;;5050822;28;20070;-47
2021/12/31 13:20:12;;;;;;;2.20;0.68;;;17.60;77.30;;;;;;5052221;28;20029;-47
2021/12/31 13:22:39;;;;;;;8.38;1.00;;;;;;;;;;5052088;28;20017;-46
2021/12/31 13:25:06;;;;;;;0.70;0.63;;;17.80;83.20;;;;;;5052000;28;20048;-45
2021/12/31 13:27:35;;;;;;;1.30;0.93;;;;;;;;;;5051851;28;20364;-46
2021/12/31 13:30:06;;;;;;;0.60;0.60;;;17.90;82.90;;;;;;5051904;28;20029;-47
2021/12/31 13:32:38;;;;;;;2.33;0.80;;;17.90;77.20;;;;;;5052198;28;20075;-47
2021/12/31 13:35:07;;;;;;;1.77;0.98;;;18.00;82.90;;;;;;5051992;28;20025;-46
2021/12/31 13:37:38;;;;;;;1.70;0.70;;;18.10;82.90;;;;;;5053823;28;20047;-46
2021/12/31 13:40:08;;;;;;;0.80;0.63;;;18.50;77.10;;;;;;5055967;28;20025;-47
2021/12/31 13:42:34;;;;;;;1.40;0.73;;;;;;;;;;5056153;28;20060;-46
2021/12/31 13:45:00;;;;;;;1.35;0.70;;;;;;;;;;5055874;28;20076;-46
2021/12/31 13:47:26;;;;;;;0.60;0.60;;;;;;;;;;5055846;28;20025;-46
2021/12/31 13:50:00;;;;;;;1.45;1.30;;;18.00;82.20;;;;;;5055789;28;20076;-46
2021/12/31 13:52:28;;;;;;;1.13;0.80;;;17.80;82.30;;;;;;5055825;28;20033;-46
2021/12/31 13:54:56;;;;;;;1.33;0.88;;;18.00;82.30;;;;;;5055816;28;20483;-46
2021/12/31 13:57:28;;;;;;;2.67;1.17;;;18.00;82.30;;;;;;5055702;28;20037;-46
2021/12/31 14:00:15;;;;;;;1.85;0.85;;;17.90;82.20;;;;;;5055955;28;20120;-46
2021/12/31 14:02:42;;;;;;;1.60;1.05;;;17.90;82.10;;;;;;5055090;28;20065;-46
2021/12/31 14:05:12;;;;;;;1.17;1.08;;;17.90;76.30;;;;;;5055312;28;20049;-46
2021/12/31 14:07:57;;;;;;;2.72;0.95;;;17.70;82.00;;;;;;5055488;28;20025;-46
2021/12/31 14:10:28;;;;;;;3.25;0.95;;;17.90;75.90;;;;;;5055481;28;20021;-47
2021/12/31 14:13:01;;;;;;;1.50;0.80;;;17.90;81.80;;;;;;5055375;28;20055;-47
2021/12/31 14:15:32;;;;;;;1.30;1.02;;;18.00;82.00;;;;;;5055624;28;20104;-46